TimeEDT,TemperatureF,Dew PointF,Humidity,Sea Level PressureIn,VisibilityMPH,Wind Direction,Wind SpeedMPH,Gust SpeedMPH,PrecipitationIn,Events,Conditions,WindDirDegrees,DateUTC
12:35 AM,57.2,48.2,72,29.93,10.0,NW,16.1,24.2,N/A,,Scattered Clouds,310,2012-10-07 04:35:00
12:55 AM,57.2,46.4,67,29.93,10.0,NW,19.6,24.2,N/A,,Clear,320,2012-10-07 04:55:00
1:15 AM,57.2,48.2,72,29.94,10.0,NW,16.1,-,N/A,,Clear,320,2012-10-07 05:15:00
1:36 AM,57.2,46.4,67,29.95,10.0,NW,15.0,21.9,N/A,,Clear,320,2012-10-07 05:36:00
1:55 AM,57.2,42.8,59,29.96,10.0,NNW,15.0,24.2,N/A,,Clear,330,2012-10-07 05:55:00
2:15 AM,57.2,42.8,59,29.96,10.0,NNW,16.1,21.9,N/A,,Clear,330,2012-10-07 06:15:00
2:35 AM,55.4,42.8,63,29.97,10.0,NW,17.3,20.7,N/A,,Clear,320,2012-10-07 06:35:00
3:15 AM,55.4,39.2,54,29.97,10.0,NW,12.7,20.7,N/A,,Clear,320,2012-10-07 07:15:00
3:35 AM,55.4,41.0,58,29.98,10.0,NW,13.8,-,N/A,,Clear,320,2012-10-07 07:35:00
3:55 AM,55.4,41.0,58,29.98,10.0,NNW,12.7,-,N/A,,Clear,330,2012-10-07 07:55:00
4:15 AM,55.4,39.2,54,29.98,10.0,NNW,13.8,18.4,N/A,,Clear,330,2012-10-07 08:15:00
4:35 AM,55.4,39.2,54,29.98,10.0,NNW,13.8,-,N/A,,Clear,330,2012-10-07 08:35:00
4:55 AM,55.4,39.2,54,29.99,10.0,NNW,10.4,16.1,N/A,,Clear,330,2012-10-07 08:55:00
5:15 AM,55.4,41.0,58,30.00,10.0,NW,9.2,17.3,N/A,,Clear,320,2012-10-07 09:15:00
5:35 AM,53.6,39.2,58,30.00,10.0,NNW,10.4,-,N/A,,Clear,330,2012-10-07 09:35:00
5:55 AM,53.6,39.2,58,30.00,10.0,NNW,10.4,-,N/A,,Clear,330,2012-10-07 09:55:00
6:15 AM,53.6,39.2,58,30.00,10.0,NW,10.4,-,N/A,,Clear,320,2012-10-07 10:15:00
6:35 AM,53.6,39.2,58,30.01,10.0,NW,10.4,-,N/A,,Clear,320,2012-10-07 10:35:00
7:15 AM,53.6,39.2,58,30.03,10.0,NW,10.4,-,N/A,,Clear,320,2012-10-07 11:15:00
7:55 AM,55.4,41.0,58,30.04,10.0,NNW,9.2,16.1,N/A,,Clear,330,2012-10-07 11:55:00
8:15 AM,55.4,44.6,67,30.06,10.0,NW,10.4,16.1,N/A,,Clear,310,2012-10-07 12:15:00
8:35 AM,55.4,44.6,67,30.06,10.0,NW,12.7,-,N/A,,Clear,310,2012-10-07 12:35:00
8:55 AM,55.4,42.8,63,30.06,10.0,NNW,9.2,-,N/A,,Clear,340,2012-10-07 12:55:00
9:15 AM,57.2,41.0,55,30.06,10.0,North,9.2,-,N/A,,Clear,350,2012-10-07 13:15:00
9:55 AM,57.2,42.8,59,30.07,10.0,NW,9.2,-,N/A,,Clear,320,2012-10-07 13:55:00
10:35 AM,57.2,42.8,59,30.06,10.0,NNW,6.9,-,N/A,,Clear,340,2012-10-07 14:35:00
10:56 AM,57.2,42.8,59,30.06,10.0,NNW,6.9,-,N/A,,Clear,330,2012-10-07 14:56:00
11:15 AM,57.2,42.8,59,30.06,10.0,NNW,6.9,-,N/A,,Clear,340,2012-10-07 15:15:00
11:35 AM,57.2,42.8,59,30.05,10.0,North,8.1,-,N/A,,Clear,350,2012-10-07 15:35:00
11:55 AM,57.2,42.8,59,30.07,9.0,NNW,8.1,-,N/A,,Clear,330,2012-10-07 15:55:00
12:15 PM,57.2,42.8,59,30.06,10.0,NNW,6.9,-,N/A,,Clear,330,2012-10-07 16:15:00
12:55 PM,57.2,41.0,55,30.06,10.0,North,5.8,-,N/A,,Clear,350,2012-10-07 16:55:00
1:15 PM,55.4,41.0,58,30.06,10.0,Calm,Calm,-,N/A,,Partly Cloudy,0,2012-10-07 17:15:00
1:35 PM,55.4,41.0,58,30.04,10.0,Calm,Calm,-,N/A,,Mostly Cloudy,0,2012-10-07 17:35:00
2:15 PM,55.4,41.0,58,30.06,10.0,Calm,Calm,-,N/A,,Overcast,0,2012-10-07 18:15:00
2:35 PM,55.4,41.0,58,30.06,10.0,North,3.5,-,N/A,,Overcast,10,2012-10-07 18:35:00
2:55 PM,55.4,42.8,63,30.06,10.0,Calm,Calm,-,N/A,,Overcast,0,2012-10-07 18:55:00
3:15 PM,55.4,41.0,58,30.06,10.0,Calm,Calm,-,N/A,,Overcast,0,2012-10-07 19:15:00
3:35 PM,53.6,44.6,72,30.06,10.0,Calm,Calm,-,N/A,,Overcast,0,2012-10-07 19:35:00
3:55 PM,53.6,44.6,72,30.05,10.0,Calm,Calm,-,N/A,,Overcast,0,2012-10-07 19:55:00
4:15 PM,53.6,44.6,72,30.05,10.0,Calm,Calm,-,N/A,,Overcast,0,2012-10-07 20:15:00
4:35 PM,53.6,42.8,67,30.05,10.0,Calm,Calm,-,N/A,,Overcast,0,2012-10-07 20:35:00
4:55 PM,53.6,44.6,72,30.03,10.0,Calm,Calm,-,N/A,,Overcast,0,2012-10-07 20:55:00
5:15 PM,53.6,48.2,82,30.03,10.0,Calm,Calm,-,0.01,,Overcast,0,2012-10-07 21:15:00
5:55 PM,51.8,48.2,88,30.06,10.0,Calm,Calm,-,0.03,,Overcast,0,2012-10-07 21:55:00
6:15 PM,51.8,46.4,82,30.05,10.0,Calm,Calm,-,0.01,,Overcast,0,2012-10-07 22:15:00
6:35 PM,51.8,48.2,88,30.06,10.0,Calm,Calm,-,0.01,,Overcast,0,2012-10-07 22:35:00
6:55 PM,51.8,48.2,88,30.05,10.0,Calm,Calm,-,0.01,,Overcast,0,2012-10-07 22:55:00
7:15 PM,51.8,48.2,88,30.04,10.0,Calm,Calm,-,N/A,,Overcast,0,2012-10-07 23:15:00
7:35 PM,51.8,48.2,88,30.05,10.0,Calm,Calm,-,N/A,,Overcast,0,2012-10-07 23:35:00
8:15 PM,51.8,48.2,88,30.04,10.0,Calm,Calm,-,N/A,,Overcast,0,2012-10-08 00:15:00
8:55 PM,51.8,48.2,88,30.01,10.0,ESE,6.9,-,N/A,,Overcast,110,2012-10-08 00:55:00
9:15 PM,51.8,48.2,88,30.00,10.0,ESE,6.9,-,N/A,,Overcast,110,2012-10-08 01:15:00
9:35 PM,51.8,46.4,82,30.01,10.0,East,3.5,-,N/A,,Overcast,100,2012-10-08 01:35:00
10:15 PM,51.8,48.2,88,30.03,10.0,Calm,Calm,-,N/A,,Overcast,0,2012-10-08 02:15:00
10:35 PM,51.8,48.2,88,30.03,5.0,Calm,Calm,-,N/A,,Overcast,0,2012-10-08 02:35:00
11:15 PM,51.8,48.2,88,30.04,6.0,West,6.9,-,N/A,,Overcast,260,2012-10-08 03:15:00
11:35 PM,51.8,48.2,88,30.04,7.0,West,8.1,-,N/A,,Overcast,260,2012-10-08 03:35:00
11:55 PM,51.8,48.2,88,30.05,7.0,West,13.8,17.3,N/A,,Mostly Cloudy,280,2012-10-08 03:55:00